Time;durP1;ratioP1;P1;durP2;ratioP2;P2;SDS_P1;SDS_P2;PMS_P1;PMS_P2;Temp;Humidity;BMP_temperature;BMP_pressure;BME280_temperature;BME280_humidity;BME280_pressure;Samples;Min_cycle;Max_cycle;Signal;HPM_P1;HPM_P2
2023/06/27 00:01:20;;;;;;;;;;;;;;;;;;5058098;28;19963;-61
2023/06/27 00:03:51;;;;;;;;;;;;;;;;;;5057432;28;20001;-62
2023/06/27 00:06:19;;;;;;;;;;;;;;;;;;5058481;28;19975;-60
2023/06/27 00:08:45;;;;;;;;;;;;;;;;;;5057511;28;19978;-63
2023/06/27 00:11:11;;;;;;;;;;;;;;;;;;5057343;28;20373;-60
2023/06/27 00:13:40;;;;;;;;;;;;;;;;;;5057301;28;20000;-63
2023/06/27 00:16:06;;;;;;;;;;;;;;;;;;5057493;28;19955;-63
2023/06/27 00:18:34;;;;;;;;;;;;;;;;;;5057154;28;20003;-60
2023/06/27 00:21:00;;;;;;;;;;;;;;;;;;5057709;28;20365;-62
2023/06/27 00:23:33;;;;;;;;;;;;;;;;;;5057686;28;19978;-62
2023/06/27 00:25:59;;;;;;;;;;;;;;;;;;5057079;28;19959;-63
2023/06/27 00:28:24;;;;;;;;;;;;;;;;;;5056941;28;19975;-62
2023/06/27 00:30:50;;;;;;;;;;;;;;;;;;5057469;28;20311;-61
2023/06/27 00:33:16;;;;;;;;;;;;;;;;;;5057202;28;19999;-62
2023/06/27 00:35:42;;;;;;;;;;;;;;;;;;5056837;28;20351;-63
2023/06/27 00:38:08;;;;;;;;;;;;;;;;;;5057090;28;19954;-62
2023/06/27 00:40:35;;;;;;;;;;;;;;;;;;5056747;28;20338;-60
2023/06/27 00:43:01;;;;;;;;;;;;;;;;;;5055154;28;19994;-62
2023/06/27 00:45:27;;;;;;;;;;;;;;;;;;5056950;28;19959;-63
2023/06/27 00:47:53;;;;;;;;;;;;;;;;;;5056540;28;19982;-63
2023/06/27 00:50:18;;;;;;;;;;;;;;;;;;5056526;28;19964;-62
2023/06/27 00:52:44;;;;;;;;;;;;;;;;;;5056818;28;20008;-61
2023/06/27 00:55:10;;;;;;;;;;;;;;;;;;5056462;28;20010;-62
2023/06/27 00:57:36;;;;;;;;;;;;;;;;;;5056455;28;19963;-60
2023/06/27 01:00:02;;;;;;;;;;;;;;;;;;5056417;28;19986;-60
2023/06/27 01:02:28;;;;;;;;;;;;;;;;;;5056628;28;20479;-65
2023/06/27 01:04:54;;;;;;;;;;;;;;;;;;5056616;28;19996;-65
2023/06/27 01:07:22;;;;;;;;;;;;;;;;;;5055619;28;20025;-65
2023/06/27 01:09:48;;;;;;;;;;;;;;;;;;5056480;28;19979;-63
2023/06/27 01:12:14;;;;;;;;;;;;;;;;;;5056239;28;20049;-62
2023/06/27 01:14:39;;;;;;;;;;;;;;;;;;5056104;28;20101;-62
2023/06/27 01:17:05;;;;;;;;;;;;;;;;;;5056648;28;19961;-64
2023/06/27 01:19:31;;;;;;;;;;;;;;;;;;5056020;28;19962;-64
2023/06/27 01:21:57;;;;;;;;;;;;;;;;;;5057062;28;20319;-63
2023/06/27 01:24:25;;;;;;;;;;;;;;;;;;5055951;28;20344;-66
2023/06/27 01:26:51;;;;;;;;;;;;;;;;;;5055891;28;19962;-62
2023/06/27 01:29:16;;;;;;;;;;;;;;;;;;5055803;28;19981;-63
2023/06/27 01:31:42;;;;;;;;;;;;;;;;;;5056143;28;19951;-65
2023/06/27 01:34:08;;;;;;;;;;;;;;;;;;5055996;28;20029;-65
2023/06/27 01:36:34;;;;;;;;;;;;;;;;;;5055754;28;19965;-65
2023/06/27 01:39:00;;;;;;;;;;;;;;;;;;5056258;28;20406;-63
2023/06/27 01:41:26;;;;;;;;;;;;;;;;;;5055662;28;19956;-61
2023/06/27 01:43:52;;;;;;;;;;;;;;;;;;5055282;28;19990;-62
2023/06/27 01:46:18;;;;;;;;;;;;;;;;;;5056119;28;19962;-62
2023/06/27 01:48:44;;;;;;;;;;;;;;;;;;5055488;28;19985;-64
2023/06/27 01:51:10;;;;;;;;;;;;;;;;;;5055454;28;19955;-63
2023/06/27 01:53:36;;;;;;;;;;;;;;;;;;5054936;28;20434;-66
2023/06/27 01:56:02;;;;;;;;;;;;;;;;;;5055621;28;19958;-62
2023/06/27 01:58:27;;;;;;;;;;;;;;;;;;5055312;28;19954;-60
2023/06/27 02:00:53;;;;;;;;;;;;;;;;;;5055271;28;19955;-62
2023/06/27 02:03:19;;;;;;;;;;;;;;;;;;5055771;28;19981;-61
2023/06/27 02:05:45;;;;;;;;;;;;;;;;;;5055184;28;19956;-66
2023/06/27 02:08:11;;;;;;;;;;;;;;;;;;5055351;28;19973;-64
2023/06/27 02:10:37;;;;;;;;;;;;;;;;;;5055071;28;19978;-64
2023/06/27 02:13:03;;;;;;;;;;;;;;;;;;5055039;28;19960;-63
2023/06/27 02:15:29;;;;;;;;;;;;;;;;;;5055555;28;19955;-65
2023/06/27 02:17:55;;;;;;;;;;;;;;;;;;5054328;28;19983;-65
2023/06/27 02:20:21;;;;;;;;;;;;;;;;;;5055989;28;19961;-65
2023/06/27 02:22:47;;;;;;;;;;;;;;;;;;5054855;28;19955;-65
2023/06/27 02:25:13;;;;;;;;;;;;;;;;;;5054840;28;19999;-64
2023/06/27 02:27:39;;;;;;;;;;;;;;;;;;5054710;28;19981;-65
2023/06/27 02:30:06;;;;;;;;;;;;;;;;;;5054965;28;20462;-64
2023/06/27 02:32:31;;;;;;;;;;;;;;;;;;5054953;28;20009;-66
2023/06/27 02:34:57;;;;;;;;;;;;;;;;;;5054659;28;20362;-65
2023/06/27 02:37:23;;;;;;;;;;;;;;;;;;5054810;28;19961;-62
2023/06/27 02:39:50;;;;;;;;;;;;;;;;;;5054497;28;19980;-62
2023/06/27 02:42:16;;;;;;;;;;;;;;;;;;5054222;28;20483;-63
2023/06/27 02:44:42;;;;;;;;;;;;;;;;;;5055053;28;19955;-65
2023/06/27 02:47:08;;;;;;;;;;;;;;;;;;5054335;28;20048;-62
2023/06/27 02:49:33;;;;;;;;;;;;;;;;;;5054670;28;19961;-63
2023/06/27 02:51:59;;;;;;;;;;;;;;;;;;5054311;28;20433;-65
2023/06/27 02:54:25;;;;;;;;;;;;;;;;;;5054286;28;19955;-62
2023/06/27 02:56:51;;;;;;;;;;;;;;;;;;5054759;28;20360;-65
2023/06/27 02:59:17;;;;;;;;;;;;;;;;;;5054143;28;19959;-63
2023/06/27 03:01:43;;;;;;;;;;;;;;;;;;5054401;28;19962;-61
2023/06/27 03:04:09;;;;;;;;;;;;;;;;;;5054088;28;20327;-62
2023/06/27 03:06:35;;;;;;;;;;;;;;;;;;5054012;28;19956;-63
2023/06/27 03:09:00;;;;;;;;;;;;;;;;;;5054200;28;20316;-63
2023/06/27 03:11:26;;;;;;;;;;;;;;;;;;5053950;28;19960;-62
2023/06/27 03:13:52;;;;;;;;;;;;;;;;;;5054197;28;19963;-64
2023/06/27 03:16:18;;;;;;;;;;;;;;;;;;5053904;28;19955;-66
2023/06/27 03:18:44;;;;;;;;;;;;;;;;;;5054433;28;19974;-64
2023/06/27 03:21:10;;;;;;;;;;;;;;;;;;5054376;28;20425;-64
2023/06/27 03:23:36;;;;;;;;;;;;;;;;;;5053804;28;19963;-64
2023/06/27 03:26:02;;;;;;;;;;;;;;;;;;5054093;28;19959;-65
2023/06/27 03:28:28;;;;;;;;;;;;;;;;;;5054100;28;20446;-65
2023/06/27 03:30:54;;;;;;;;;;;;;;;;;;5053620;28;19960;-62
2023/06/27 03:33:20;;;;;;;;;;;;;;;;;;5053954;28;19955;-65
2023/06/27 03:35:46;;;;;;;;;;;;;;;;;;5053622;28;20341;-66
2023/06/27 03:38:11;;;;;;;;;;;;;;;;;;5053949;28;19955;-63
2023/06/27 03:40:37;;;;;;;;;;;;;;;;;;5053604;28;20322;-64
2023/06/27 03:43:03;;;;;;;;;;;;;;;;;;5053387;28;20034;-63
2023/06/27 03:45:29;;;;;;;;;;;;;;;;;;5053840;28;20054;-63
2023/06/27 03:47:55;;;;;;;;;;;;;;;;;;5053465;28;20001;-65
2023/06/27 03:50:22;;;;;;;;;;;;;;;;;;5053543;28;20406;-65
2023/06/27 03:52:48;;;;;;;;;;;;;;;;;;5053513;28;19990;-66
2023/06/27 03:55:14;;;;;;;;;;;;;;;;;;5053742;28;20024;-61
2023/06/27 03:57:39;;;;;;;;;;;;;;;;;;5053412;28;19956;-62
2023/06/27 04:00:07;;;;;;;;;;;;;;;;;;5053691;28;19954;-62
2023/06/27 04:02:33;;;;;;;;;;;;;;;;;;5052945;28;19967;-65
2023/06/27 04:04:59;;;;;;;;;;;;;;;;;;5053357;28;19955;-64
2023/06/27 04:07:25;;;;;;;;;;;;;;;;;;5053804;28;20380;-64
2023/06/27 04:09:50;;;;;;;;;;;;;;;;;;5053629;28;19959;-65
2023/06/27 04:12:16;;;;;;;;;;;;;;;;;;5053302;28;20338;-64
2023/06/27 04:14:42;;;;;;;;;;;;;;;;;;5053825;28;20457;-64
2023/06/27 04:17:08;;;;;;;;;;;;;;;;;;5053496;28;19994;-64
2023/06/27 04:19:34;;;;;;;;;;;;;;;;;;5053781;28;20052;-63
2023/06/27 04:22:00;;;;;;;;;;;;;;;;;;5054342;28;19955;-64
2023/06/27 04:24:26;;;;;;;;;;;;;;;;;;5053195;28;19954;-63
2023/06/27 04:26:52;;;;;;;;;;;;;;;;;;5053205;28;19954;-64
2023/06/27 04:29:17;;;;;;;;;;;;;;;;;;5053369;28;19973;-63
2023/06/27 04:31:43;;;;;;;;;;;;;;;;;;5053393;28;20041;-63
2023/06/27 04:34:09;;;;;;;;;;;;;;;;;;5053489;28;20053;-61
2023/06/27 04:36:41;;;;;;;;;;;;;;;;;;5053078;28;19955;-63
2023/06/27 04:39:07;;;;;;;;;;;;;;;;;;5053050;28;19994;-63
2023/06/27 04:41:33;;;;;;;;;;;;;;;;;;5054535;28;19954;-62
2023/06/27 04:43:59;;;;;;;;;;;;;;;;;;5056351;28;20044;-64
2023/06/27 04:46:28;;;;;;;;;;;;;;;;;;5056959;28;20008;-66
2023/06/27 04:48:56;;;;;;;;;;;;;;;;;;5055314;28;20640;-62
2023/06/27 04:51:22;;;;;;;;;;;;;;;;;;5056835;28;20312;-61
2023/06/27 04:53:48;;;;;;;;;;;;;;;;;;5057105;28;19961;-66
2023/06/27 04:56:14;;;;;;;;;;;;;;;;;;5056767;28;19959;-65
2023/06/27 04:58:40;;;;;;;;;;;;;;;;;;5056461;28;19954;-63
2023/06/27 05:01:06;;;;;;;;;;;;;;;;;;5056981;28;20024;-63
2023/06/27 05:03:32;;;;;;;;;;;;;;;;;;5056343;28;19974;-65
2023/06/27 05:05:58;;;;;;;;;;;;;;;;;;5056324;28;20005;-64
2023/06/27 05:08:24;;;;;;;;;;;;;;;;;;5056523;28;19982;-65
2023/06/27 05:10:50;;;;;;;;;;;;;;;;;;5056270;28;20130;-64
2023/06/27 05:13:15;;;;;;;;;;;;;;;;;;5056778;28;20415;-62
2023/06/27 05:15:41;;;;;;;;;;;;;;;;;;5056427;28;20003;-64
2023/06/27 05:18:07;;;;;;;;;;;;;;;;;;5056373;28;19960;-62
2023/06/27 05:20:33;;;;;;;;;;;;;;;;;;5056075;28;19977;-65
2023/06/27 05:23:01;;;;;;;;;;;;;;;;;;5056810;28;19960;-64
2023/06/27 05:25:26;;;;;;;;;;;;;;;;;;5055032;28;20027;-64
2023/06/27 05:27:52;;;;;;;;;;;;;;;;;;5055839;28;20435;-63
2023/06/27 05:30:19;;;;;;;;;;;;;;;;;;5055871;28;19962;-64
2023/06/27 05:32:45;;;;;;;;;;;;;;;;;;5054342;28;19958;-63
2023/06/27 05:35:11;;;;;;;;;;;;;;;;;;5055737;28;19970;-65
2023/06/27 05:37:37;;;;;;;;;;;;;;;;;;5056003;28;20364;-64
2023/06/27 05:40:04;;;;;;;;;;;;;;;;;;5055667;28;20045;-63
2023/06/27 05:42:30;;;;;;;;;;;;;;;;;;5055950;28;20098;-63
2023/06/27 05:44:56;;;;;;;;;;;;;;;;;;5055629;28;20439;-62
2023/06/27 05:47:22;;;;;;;;;;;;;;;;;;5055556;28;19961;-63
2023/06/27 05:49:48;;;;;;;;;;;;;;;;;;5055790;28;19994;-64
2023/06/27 05:52:14;;;;;;;;;;;;;;;;;;5055388;28;20519;-63
2023/06/27 05:54:41;;;;;;;;;;;;;;;;;;5055977;28;19999;-61
2023/06/27 05:57:07;;;;;;;;;;;;;;;;;;5055217;28;19964;-63
2023/06/27 05:59:33;;;;;;;;;;;;;;;;;;5055597;28;20005;-63
2023/06/27 06:01:59;;;;;;;;;;;;;;;;;;5055274;28;19998;-61
2023/06/27 06:04:25;;;;;;;;;;;;;;;;;;5055806;28;19954;-61
2023/06/27 06:06:51;;;;;;;;;;;;;;;;;;5055198;28;19955;-62
2023/06/27 06:09:17;;;;;;;;;;;;;;;;;;5055138;28;20025;-65
2023/06/27 06:11:44;;;;;;;;;;;;;;;;;;5055092;28;20330;-65
2023/06/27 06:14:09;;;;;;;;;;;;;;;;;;5055049;28;19962;-63
2023/06/27 06:16:35;;;;;;;;;;;;;;;;;;5055256;28;19955;-64
2023/06/27 06:19:02;;;;;;;;;;;;;;;;;;5055191;28;19954;-64
2023/06/27 06:21:28;;;;;;;;;;;;;;;;;;5055717;28;20474;-62
2023/06/27 06:23:53;;;;;;;;;;;;;;;;;;5055089;28;20002;-63
2023/06/27 06:26:19;;;;;;;;;;;;;;;;;;5054785;28;19954;-64
2023/06/27 06:28:45;;;;;;;;;;;;;;;;;;5054953;28;20056;-63
2023/06/27 06:31:11;;;;;;;;;;;;;;;;;;5054695;28;20376;-65
2023/06/27 06:33:37;;;;;;;;;;;;;;;;;;5054671;28;20001;-63
2023/06/27 06:36:04;;;;;;;;;;;;;;;;;;5054831;28;20325;-66
2023/06/27 06:38:29;;;;;;;;;;;;;;;;;;5054851;28;20434;-65
2023/06/27 06:40:55;;;;;;;;;;;;;;;;;;5055051;28;20007;-66
2023/06/27 06:43:21;;;;;;;;;;;;;;;;;;5054123;28;20042;-66
2023/06/27 06:45:47;;;;;;;;;;;;;;;;;;5054460;28;19966;-64
2023/06/27 06:48:13;;;;;;;;;;;;;;;;;;5054600;28;19974;-64
2023/06/27 06:50:39;;;;;;;;;;;;;;;;;;5054339;28;20471;-63
2023/06/27 06:53:06;;;;;;;;;;;;;;;;;;5054217;28;19993;-65
2023/06/27 06:55:34;;;;;;;;;;;;;;;;;;5052665;28;20404;-63
2023/06/27 06:58:00;;;;;;;;;;;;;;;;;;5054492;28;20050;-65
2023/06/27 07:00:27;;;;;;;;;;;;;;;;;;5054201;28;20430;-65
2023/06/27 07:02:53;;;;;;;;;;;;;;;;;;5052606;28;20479;-64
2023/06/27 07:05:19;;;;;;;;;;;;;;;;;;5045633;28;19967;-63
2023/06/27 07:07:45;;;;;;;;;;;;;;;;;;5043115;28;20025;-62
2023/06/27 07:10:11;;;;;;;;;;;;;;;;;;5039228;28;20335;-65
2023/06/27 07:12:37;;;;;;;;;;;;;;;;;;5038392;28;20035;-68
2023/06/27 07:15:03;;;;;;;;;;;;;;;;;;5049335;28;20006;-68
2023/06/27 07:17:29;;;;;;;;;;;;;;;;;;5051709;28;20021;-69
2023/06/27 07:19:54;;;;;;;;;;;;;;;;;;5054145;28;19979;-68
2023/06/27 07:22:21;;;;;;;;;;;;;;;;;;5039859;28;19959;-69
2023/06/27 07:24:47;;;;;;;;;;;;;;;;;;5034335;28;19955;-68
2023/06/27 07:27:13;;;;;;;;;;;;;;;;;;5033764;28;19961;-69
2023/06/27 07:29:39;;;;;;;;;;;;;;;;;;5034100;28;19966;-69
2023/06/27 07:32:05;;;;;;;;;;;;;;;;;;5038112;28;19973;-68
2023/06/27 07:34:30;;;;;;;;;;;;;;;;;;5044446;28;20028;-69
2023/06/27 07:36:56;;;;;;;;;;;;;;;;;;5046476;28;20484;-71
2023/06/27 07:39:22;;;;;;;;;;;;;;;;;;5044286;28;20050;-75
2023/06/27 07:41:48;;;;;;;;;;;;;;;;;;5037595;28;20317;-71
2023/06/27 07:44:14;;;;;;;;;;;;;;;;;;5045567;28;19966;-69
2023/06/27 07:46:40;;;;;;;;;;;;;;;;;;5053872;28;19955;-69
2023/06/27 07:49:06;;;;;;;;;;;;;;;;;;5034365;28;19973;-69
2023/06/27 07:51:32;;;;;;;;;;;;;;;;;;5033625;28;19955;-71
2023/06/27 07:54:00;;;;;;;;;;;;;;;;;;5033900;28;19955;-69
2023/06/27 07:56:26;;;;;;;;;;;;;;;;;;5033504;28;19965;-69
2023/06/27 07:58:52;;;;;;;;;;;;;;;;;;5033503;28;19955;-70
2023/06/27 08:01:17;;;;;;;;;;;;;;;;;;5052010;28;19959;-70
2023/06/27 08:03:43;;;;;;;;;;;;;;;;;;5054669;28;19958;-67
2023/06/27 08:06:09;;;;;;;;;;;;;;;;;;5055542;28;19962;-73
2023/06/27 08:08:36;;;;;;;;;;;;;;;;;;5037833;28;19980;-73
2023/06/27 08:11:02;;;;;;;;;;;;;;;;;;5056835;28;20438;-67
2023/06/27 08:13:28;;;;;;;;;;;;;;;;;;5052202;28;19972;-67
2023/06/27 08:15:54;;;;;;;;;;;;;;;;;;5044614;28;19954;-68
2023/06/27 08:18:19;;;;;;;;;;;;;;;;;;5037835;28;19953;-65
2023/06/27 08:20:45;;;;;;;;;;;;;;;;;;5044724;28;20052;-66
2023/06/27 08:23:11;;;;;;;;;;;;;;;;;;5057714;28;20016;-66
2023/06/27 08:25:37;;;;;;;;;;;;;;;;;;5056473;28;19959;-67
2023/06/27 08:28:03;;;;;;;;;;;;;;;;;;5056997;28;19973;-66
2023/06/27 08:30:29;;;;;;;;;;;;;;;;;;5043723;28;20005;-66
2023/06/27 08:32:56;;;;;;;;;;;;;;;;;;5035676;28;19966;-63
2023/06/27 08:35:22;;;;;;;;;;;;;;;;;;5037819;28;20016;-64
2023/06/27 08:37:47;;;;;;;;;;;;;;;;;;5048113;28;19981;-65
2023/06/27 08:40:14;;;;;;;;;;;;;;;;;;5036891;28;20370;-67
2023/06/27 08:42:40;;;;;;;;;;;;;;;;;;5065744;28;19990;-68
2023/06/27 08:45:05;;;;;;;;;;;;;;;;;;5056777;28;19960;-68
2023/06/27 08:47:31;;;;;;;;;;;;;;;;;;5064723;28;20411;-68
2023/06/27 08:49:57;;;;;;;;;;;;;;;;;;5076935;28;19954;-66
2023/06/27 08:52:23;;;;;;;;;;;;;;;;;;5076589;28;20403;-68
2023/06/27 08:54:49;;;;;;;;;;;;;;;;;;5060929;28;20053;-68
2023/06/27 08:57:15;;;;;;;;;;;;;;;;;;5050139;28;19962;-70
2023/06/27 08:59:41;;;;;;;;;;;;;;;;;;5043075;28;20497;-71
2023/06/27 09:02:07;;;;;;;;;;;;;;;;;;5049416;28;19980;-70
2023/06/27 09:04:33;;;;;;;;;;;;;;;;;;5062039;28;19988;-74
2023/06/27 09:06:59;;;;;;;;;;;;;;;;;;5054634;28;20003;-75
2023/06/27 09:09:25;;;;;;;;;;;;;;;;;;5048226;28;19986;-76
2023/06/27 09:11:51;;;;;;;;;;;;;;;;;;5044934;28;19981;-76
2023/06/27 09:14:16;;;;;;;;;;;;;;;;;;5045517;28;19960;-75
2023/06/27 09:16:42;;;;;;;;;;;;;;;;;;5056570;28;19970;-74
2023/06/27 09:19:08;;;;;;;;;;;;;;;;;;5051336;28;20101;-74
2023/06/27 09:21:34;;;;;;;;;;;;;;;;;;5065553;28;19968;-76
2023/06/27 09:24:00;;;;;;;;;;;;;;;;;;5056101;28;19996;-75
2023/06/27 09:26:27;;;;;;;;;;;;;;;;;;5073388;28;20345;-76
2023/06/27 09:28:52;;;;;;;;;;;;;;;;;;5076073;28;20422;-75
2023/06/27 09:31:18;;;;;;;;;;;;;;;;;;5059751;28;19985;-76
2023/06/27 09:33:44;;;;;;;;;;;;;;;;;;5055809;28;19959;-74
2023/06/27 09:36:10;;;;;;;;;;;;;;;;;;5056404;28;20008;-77
2023/06/27 09:38:36;;;;;;;;;;;;;;;;;;5055852;28;19954;-77
2023/06/27 09:41:03;;;;;;;;;;;;;;;;;;5056083;28;20052;-78
2023/06/27 09:43:28;;;;;;;;;;;;;;;;;;5055758;28;19992;-74
2023/06/27 09:45:54;;;;;;;;;;;;;;;;;;5056030;28;20322;-75
2023/06/27 09:48:21;;;;;;;;;;;;;;;;;;5055722;28;19981;-75
2023/06/27 09:50:47;;;;;;;;;;;;;;;;;;5056215;28;20358;-75
2023/06/27 09:53:13;;;;;;;;;;;;;;;;;;5055983;28;19962;-75
2023/06/27 09:55:39;;;;;;;;;;;;;;;;;;5055238;28;19960;-70
2023/06/27 09:58:05;;;;;;;;;;;;;;;;;;5046882;28;20429;-70
2023/06/27 10:00:31;;;;;;;;;;;;;;;;;;5045997;28;19959;-72
2023/06/27 10:02:57;;;;;;;;;;;;;;;;;;5053721;28;19963;-69
2023/06/27 10:05:23;;;;;;;;;;;;;;;;;;5064348;28;20058;-69
2023/06/27 10:07:49;;;;;;;;;;;;;;;;;;5052173;28;19983;-69
2023/06/27 10:10:15;;;;;;;;;;;;;;;;;;5040092;28;20004;-68
2023/06/27 10:12:40;;;;;;;;;;;;;;;;;;5035191;28;19963;-69
2023/06/27 10:15:08;;;;;;;;;;;;;;;;;;5036422;28;20042;-69
2023/06/27 10:17:34;;;;;;;;;;;;;;;;;;5047921;28;19956;-68
2023/06/27 10:20:00;;;;;;;;;;;;;;;;;;5055216;28;19961;-68
2023/06/27 10:22:28;;;;;;;;;;;;;;;;;;5041298;28;19960;-70
2023/06/27 10:24:56;;;;;;;;;;;;;;;;;;5035220;28;20082;-68
2023/06/27 10:27:22;;;;;;;;;;;;;;;;;;5042442;28;20053;-70
2023/06/27 10:29:47;;;;;;;;;;;;;;;;;;5056060;28;19994;-73
2023/06/27 10:32:13;;;;;;;;;;;;;;;;;;5063918;28;19956;-72
2023/06/27 10:34:40;;;;;;;;;;;;;;;;;;5054483;28;19995;-71
2023/06/27 10:37:06;;;;;;;;;;;;;;;;;;5054654;28;19961;-70
2023/06/27 10:39:32;;;;;;;;;;;;;;;;;;5051598;28;20389;-65
2023/06/27 10:41:58;;;;;;;;;;;;;;;;;;5034378;28;19960;-67
2023/06/27 10:44:24;;;;;;;;;;;;;;;;;;5035146;28;20416;-67
2023/06/27 10:46:50;;;;;;;;;;;;;;;;;;5034541;28;19962;-63
2023/06/27 10:49:16;;;;;;;;;;;;;;;;;;5034717;28;19981;-67
2023/06/27 10:51:42;;;;;;;;;;;;;;;;;;5034465;28;20059;-65
2023/06/27 10:54:14;;;;;;;;;;;;;;;;;;5034675;28;19955;-63
2023/06/27 10:56:40;;;;;;;;;;;;;;;;;;5034571;28;20005;-65
2023/06/27 10:59:08;;;;;;;;;;;;;;;;;;5034314;28;20396;-66
2023/06/27 11:01:34;;;;;;;;;;;;;;;;;;5033006;28;20447;-67
2023/06/27 11:04:00;;;;;;;;;;;;;;;;;;5033858;28;19953;-66
2023/06/27 11:06:26;;;;;;;;;;;;;;;;;;5034218;28;19956;-66
2023/06/27 11:08:52;;;;;;;;;;;;;;;;;;5034745;28;20030;-65
2023/06/27 11:11:18;;;;;;;;;;;;;;;;;;5033421;28;19986;-63
2023/06/27 11:13:44;;;;;;;;;;;;;;;;;;5034961;28;20432;-63
2023/06/27 11:16:11;;;;;;;;;;;;;;;;;;5034094;28;19956;-66
2023/06/27 11:18:37;;;;;;;;;;;;;;;;;;5034316;28;19967;-67
2023/06/27 11:21:03;;;;;;;;;;;;;;;;;;5034492;28;20385;-65
2023/06/27 11:23:29;;;;;;;;;;;;;;;;;;5034563;28;19963;-63
2023/06/27 11:25:55;;;;;;;;;;;;;;;;;;5033930;28;19961;-64
2023/06/27 11:28:21;;;;;;;;;;;;;;;;;;5034367;28;20068;-66
2023/06/27 11:30:47;;;;;;;;;;;;;;;;;;5033854;28;19958;-65
2023/06/27 11:33:13;;;;;;;;;;;;;;;;;;5033809;28;20004;-67
2023/06/27 11:35:42;;;;;;;;;;;;;;;;;;5033732;28;19980;-67
2023/06/27 11:38:08;;;;;;;;;;;;;;;;;;5033756;28;20049;-64
2023/06/27 11:40:34;;;;;;;;;;;;;;;;;;5033670;28;19966;-64
2023/06/27 11:43:00;;;;;;;;;;;;;;;;;;5033643;28;19992;-63
2023/06/27 11:45:27;;;;;;;;;;;;;;;;;;5033657;28;19955;-66
2023/06/27 11:47:53;;;;;;;;;;;;;;;;;;5033859;28;19974;-63
2023/06/27 11:50:19;;;;;;;;;;;;;;;;;;5035941;28;20055;-65
2023/06/27 11:52:45;;;;;;;;;;;;;;;;;;5040483;28;20009;-63
2023/06/27 11:55:11;;;;;;;;;;;;;;;;;;5038879;28;20000;-64
2023/06/27 11:57:37;;;;;;;;;;;;;;;;;;5040719;28;19957;-65
2023/06/27 12:00:03;;;;;;;;;;;;;;;;;;5040691;28;19962;-65
2023/06/27 12:02:28;;;;;;;;;;;;;;;;;;5040361;28;19985;-66
2023/06/27 12:04:55;;;;;;;;;;;;;;;;;;5040124;28;19959;-62
2023/06/27 12:07:21;;;;;;;;;;;;;;;;;;5040001;28;19959;-63
2023/06/27 12:09:47;;;;;;;;;;;;;;;;;;5040584;28;19966;-66
2023/06/27 12:12:13;;;;;;;;;;;;;;;;;;5040065;28;19955;-63
2023/06/27 12:14:39;;;;;;;;;;;;;;;;;;5040611;28;20391;-64
2023/06/27 12:17:05;;;;;;;;;;;;;;;;;;5040256;28;20018;-66
2023/06/27 12:19:31;;;;;;;;;;;;;;;;;;5040005;28;20321;-64
2023/06/27 12:21:59;;;;;;;;;;;;;;;;;;5040039;28;20374;-66
2023/06/27 12:24:25;;;;;;;;;;;;;;;;;;5039894;28;19960;-65
2023/06/27 12:26:51;;;;;;;;;;;;;;;;;;5040192;28;19955;-64
2023/06/27 12:29:17;;;;;;;;;;;;;;;;;;5039855;28;20343;-66
2023/06/27 12:31:43;;;;;;;;;;;;;;;;;;5039880;28;19955;-65
2023/06/27 12:34:10;;;;;;;;;;;;;;;;;;5040004;28;19994;-63
2023/06/27 12:36:36;;;;;;;;;;;;;;;;;;5040113;28;20374;-66
2023/06/27 12:39:03;;;;;;;;;;;;;;;;;;5040366;28;19955;-65
2023/06/27 12:41:29;;;;;;;;;;;;;;;;;;5039751;28;19963;-66
2023/06/27 12:43:54;;;;;;;;;;;;;;;;;;5039379;28;19994;-67
2023/06/27 12:46:20;;;;;;;;;;;;;;;;;;5039721;28;20024;-66
2023/06/27 12:48:46;;;;;;;;;;;;;;;;;;5039615;28;20025;-65
2023/06/27 12:51:12;;;;;;;;;;;;;;;;;;5040541;28;20432;-63
2023/06/27 12:53:38;;;;;;;;;;;;;;;;;;5039712;28;19987;-64
2023/06/27 12:56:04;;;;;;;;;;;;;;;;;;5039647;28;20421;-65
2023/06/27 12:58:30;;;;;;;;;;;;;;;;;;5040197;28;20464;-65
2023/06/27 13:00:57;;;;;;;;;;;;;;;;;;5039581;28;20039;-66
2023/06/27 13:03:22;;;;;;;;;;;;;;;;;;5035649;28;19966;-67
2023/06/27 13:05:48;;;;;;;;;;;;;;;;;;5036785;28;19985;-64
2023/06/27 13:08:14;;;;;;;;;;;;;;;;;;5036341;28;19973;-64
2023/06/27 13:10:40;;;;;;;;;;;;;;;;;;5037001;28;19964;-66
2023/06/27 13:13:06;;;;;;;;;;;;;;;;;;5036352;28;19956;-65
2023/06/27 13:15:32;;;;;;;;;;;;;;;;;;5036569;28;19956;-65
2023/06/27 13:17:58;;;;;;;;;;;;;;;;;;5036565;28;19955;-67
2023/06/27 13:20:25;;;;;;;;;;;;;;;;;;5036257;28;19997;-66
2023/06/27 13:22:51;;;;;;;;;;;;;;;;;;5035202;28;19983;-66
2023/06/27 13:25:17;;;;;;;;;;;;;;;;;;5036145;28;20447;-67
2023/06/27 13:27:43;;;;;;;;;;;;;;;;;;5036299;28;19956;-63
2023/06/27 13:30:09;;;;;;;;;;;;;;;;;;5036335;28;19962;-64
2023/06/27 13:32:34;;;;;;;;;;;;;;;;;;5035959;28;20335;-66
2023/06/27 13:35:00;;;;;;;;;;;;;;;;;;5035854;28;19971;-65
2023/06/27 13:37:26;;;;;;;;;;;;;;;;;;5036161;28;20363;-64
2023/06/27 13:39:52;;;;;;;;;;;;;;;;;;5035887;28;19956;-63
2023/06/27 13:42:18;;;;;;;;;;;;;;;;;;5036071;28;19991;-66
2023/06/27 13:44:44;;;;;;;;;;;;;;;;;;5035745;28;19956;-64
2023/06/27 13:47:10;;;;;;;;;;;;;;;;;;5035999;28;19956;-65
2023/06/27 13:49:36;;;;;;;;;;;;;;;;;;5035875;28;20076;-66
2023/06/27 13:52:05;;;;;;;;;;;;;;;;;;5036164;28;19956;-64
2023/06/27 13:54:31;;;;;;;;;;;;;;;;;;5035861;28;19956;-65
2023/06/27 13:56:57;;;;;;;;;;;;;;;;;;5036145;28;20277;-64
2023/06/27 13:59:23;;;;;;;;;;;;;;;;;;5035732;28;20426;-65
2023/06/27 14:01:48;;;;;;;;;;;;;;;;;;5035478;28;19955;-66
2023/06/27 14:04:14;;;;;;;;;;;;;;;;;;5035728;28;20090;-65
2023/06/27 14:06:40;;;;;;;;;;;;;;;;;;5035346;28;20336;-67
2023/06/27 14:09:08;;;;;;;;;;;;;;;;;;5035219;28;19986;-66
2023/06/27 14:11:34;;;;;;;;;;;;;;;;;;5035527;28;19961;-65
2023/06/27 14:14:00;;;;;;;;;;;;;;;;;;5034046;28;19955;-67
2023/06/27 14:16:26;;;;;;;;;;;;;;;;;;5035138;28;20427;-63
2023/06/27 14:18:53;;;;;;;;;;;;;;;;;;5035367;28;20036;-65
2023/06/27 14:21:21;;;;;;;;;;;;;;;;;;5033761;28;20012;-66
2023/06/27 14:23:48;;;;;;;;;;;;;;;;;;5035822;28;19962;-64
2023/06/27 14:26:14;;;;;;;;;;;;;;;;;;5034840;28;20416;-65
2023/06/27 14:28:40;;;;;;;;;;;;;;;;;;5034846;28;19981;-67
2023/06/27 14:31:06;;;;;;;;;;;;;;;;;;5035217;28;19955;-67
2023/06/27 14:33:32;;;;;;;;;;;;;;;;;;5034872;28;20344;-63
2023/06/27 14:35:58;;;;;;;;;;;;;;;;;;5034731;28;20077;-67
2023/06/27 14:38:24;;;;;;;;;;;;;;;;;;5035075;28;19955;-67
2023/06/27 14:40:50;;;;;;;;;;;;;;;;;;5034996;28;20419;-64
2023/06/27 14:43:16;;;;;;;;;;;;;;;;;;5034477;28;20478;-62
2023/06/27 14:45:42;;;;;;;;;;;;;;;;;;5034577;28;19962;-63
2023/06/27 14:48:07;;;;;;;;;;;;;;;;;;5034479;28;20343;-65
2023/06/27 14:50:35;;;;;;;;;;;;;;;;;;5034523;28;19956;-67
2023/06/27 14:53:01;;;;;;;;;;;;;;;;;;5034707;28;20325;-66
2023/06/27 14:55:27;;;;;;;;;;;;;;;;;;5034688;28;19959;-63
2023/06/27 14:57:55;;;;;;;;;;;;;;;;;;5034682;28;19962;-66
2023/06/27 15:00:21;;;;;;;;;;;;;;;;;;5034624;28;20446;-65
2023/06/27 15:02:47;;;;;;;;;;;;;;;;;;5034258;28;20005;-64
2023/06/27 15:05:13;;;;;;;;;;;;;;;;;;5034547;28;20006;-66
2023/06/27 15:07:42;;;;;;;;;;;;;;;;;;5034149;28;19998;-66
2023/06/27 15:10:08;;;;;;;;;;;;;;;;;;5034194;28;19962;-67
2023/06/27 15:12:34;;;;;;;;;;;;;;;;;;5034142;28;19955;-67
2023/06/27 15:15:01;;;;;;;;;;;;;;;;;;5034079;28;20329;-66
2023/06/27 15:17:27;;;;;;;;;;;;;;;;;;5034120;28;19955;-66
2023/06/27 15:19:53;;;;;;;;;;;;;;;;;;5034032;28;19962;-64
2023/06/27 15:22:22;;;;;;;;;;;;;;;;;;5034269;28;19979;-66
2023/06/27 15:24:50;;;;;;;;;;;;;;;;;;5034329;28;19960;-66
2023/06/27 15:27:15;;;;;;;;;;;;;;;;;;5033924;28;20442;-65
2023/06/27 15:29:41;;;;;;;;;;;;;;;;;;5034316;28;20066;-65
2023/06/27 15:32:09;;;;;;;;;;;;;;;;;;5033826;28;19962;-66
2023/06/27 15:34:35;;;;;;;;;;;;;;;;;;5033770;28;20078;-63
2023/06/27 15:37:01;;;;;;;;;;;;;;;;;;5033823;28;19998;-64
2023/06/27 15:39:27;;;;;;;;;;;;;;;;;;5033765;28;20009;-66
2023/06/27 15:41:55;;;;;;;;;;;;;;;;;;5033857;28;20046;-65
2023/06/27 15:44:21;;;;;;;;;;;;;;;;;;5034071;28;20041;-64
2023/06/27 15:46:47;;;;;;;;;;;;;;;;;;5033970;28;20420;-65
2023/06/27 15:49:13;;;;;;;;;;;;;;;;;;5034132;28;20019;-64
2023/06/27 15:51:39;;;;;;;;;;;;;;;;;;5033895;28;20002;-65
2023/06/27 15:54:05;;;;;;;;;;;;;;;;;;5033587;28;19961;-67
2023/06/27 15:56:31;;;;;;;;;;;;;;;;;;5033864;28;20043;-68
2023/06/27 15:58:57;;;;;;;;;;;;;;;;;;5033535;28;19991;-64
2023/06/27 16:01:23;;;;;;;;;;;;;;;;;;5033790;28;20332;-66
2023/06/27 16:03:49;;;;;;;;;;;;;;;;;;5033565;28;20467;-64
2023/06/27 16:06:15;;;;;;;;;;;;;;;;;;5033774;28;19959;-63
2023/06/27 16:08:41;;;;;;;;;;;;;;;;;;5033366;28;20456;-65
2023/06/27 16:11:06;;;;;;;;;;;;;;;;;;5033488;28;19955;-65
2023/06/27 16:13:32;;;;;;;;;;;;;;;;;;5033977;28;20411;-67
2023/06/27 16:15:58;;;;;;;;;;;;;;;;;;5033691;28;19955;-66
2023/06/27 16:18:24;;;;;;;;;;;;;;;;;;5033658;28;20310;-65
2023/06/27 16:20:50;;;;;;;;;;;;;;;;;;5033411;28;19983;-67
2023/06/27 16:23:16;;;;;;;;;;;;;;;;;;5033906;28;20451;-66
2023/06/27 16:25:42;;;;;;;;;;;;;;;;;;5033875;28;19955;-66
2023/06/27 16:28:08;;;;;;;;;;;;;;;;;;5033269;28;20011;-67
2023/06/27 16:30:37;;;;;;;;;;;;;;;;;;5033359;28;19954;-65
2023/06/27 16:33:03;;;;;;;;;;;;;;;;;;5033583;28;19962;-66
2023/06/27 16:35:29;;;;;;;;;;;;;;;;;;5033191;28;19969;-65
2023/06/27 16:37:55;;;;;;;;;;;;;;;;;;5035287;28;19966;-67